Hlavní strana
METAR-TAF:

METAR-TAF

Letiště :

Bizerte, Tunisko

zeměpisná šířka: 37-15N, zeměpisná délka: 009-48E, výška: 5 m

Aktuální stav počasí

Zpráva byla vytvořena před 48 minutami, v 03:00 UTC
Západoseverozápadní vítr 4 kt
Teplota 13°C
Vlhkost vzduchu 77%
Tlak 1014 hPa
Viditelnost 10 km a více
Polojasno ve výšce 2000 ft
Polojasno ve výšce 3000 ft

METAR: DTTB 040300Z 30004KT 9999 SCT020 SCT030 13/09 Q1014

Čas: 04:48 (03:48 UTC)

Předpověď počasí

Zpráva byla vytvořena před 3 hodinami a 48 minutami, v 00:00 UTC
Předpověď platná od 04 v 01 UTC do 04 v 10 UTC
Severozápadní vítr 5 kt
Viditelnost: 8000 m
Polojasno ve výšce 2000 ft
Polojasno ve výšce 3000 ft
Změna
od 04 v 02 UTC do 04 v 04 UTC
Severoseverozápadní vítr 10 kt s nárazy do 20 kt

TAF: DTTB 040000Z 0401/0410 31005KT 8000 SCT020 SCT030 BECMG 0402/0404 33010G20KT

Stav a předpovědi počasí z více než 4 000 letišť (zprávy METAR a TAF).

Červené a žluté tečky na mapě představují dostupné meteorologické stanice.

Když kurzor umístíte na tečku, zobrazí se název stanice.

Pak kliknutím zobrazíte stav a předpověď počasí.

Chcete-li změnit mapu, kliknutím na zelené tlačítko se znaménkem +mapu přiblížíte, kliknutím na zelené tlačítko se znaménkem – mapu oddálíte a kliknutím na zelené šipky přejdete na sousední mapy.


METAR-TAF: